Hovedside
METAR-TAF:

METAR-TAF

Lufthavner :

Butterworth, Malaysia

breddegrad: 05-27-58N, lengdegrad: 100-23-28E, høyde over havet: 2 m

Gjeldene værobservasjon

Denne rapporten ble laget for 54 minutter siden, klokken 03:00 UTC
Vind 6 kt fra Sør-sørøst, skiftende mellom Øst-sørøst og Sør
Temperatur 29°C
Luftfuktighet 62%
Trykk 1008 hPa
Sikt: 8000 m
Få skyer i en høyde av 1000 ft

METAR: WMKB 220300Z 15006KT 110V190 8000 FEW010 29/21 Q1008 NOSIG

Tid: 11:54 (03:54 UTC)

Varsel

Denne rapporten ble laget for 4 timer og 54 minutter siden, klokken 23:00 UTC
Varsel gyldig fra 22. klokken 00 UTC til 23. klokken 00 UTC
Vind 5 kt fra Øst
Sikt: 9000 m
Få skyer i en høyde av 2000 ft
Sannsynlighet 30% :
Midlertidig
fra 22. klokken 00 UTC til 22. klokken 02 UTC
Sikt: 7000 m
Få skyer i en høyde av 1000 ft
lett regn
Blir
fra 22. klokken 04 UTC til 22. klokken 06 UTC
Vind 10 kt fra Vest-sørvest

TAF: WMKB 212300Z 2200/2300 08005KT 9000 FEW020 PROB30 TEMPO 2200/2202 7000 -RA FEW010 BECMG 2204/2206 25010KT

Værobservasjoner og værvarsel for over 4000 flyplasser (METAR- og TAF-rapporter).

Tilgjengelige stasjoner er representert av de røde og gule prikkene på kartet.

Hold musepekeren over prikken for å se navnet på stasjonen.

Klikk så for å se værobservasjoner og -varsler.

For å forandre kartet kan du klikke på den grønne knappen med svart kryss for å zoome inn, på den grønne knappen med strek for å zoome ut, eller på de grønne pilene for å se tilstøtende kart.


METAR-TAF: